createdAt,value
2023-05-19T00:01:01.821Z,12.40
2023-05-19T00:02:34.559Z,12.38
2023-05-19T00:04:07.522Z,12.36
2023-05-19T00:05:46.629Z,12.38
2023-05-19T00:07:22.401Z,12.32
2023-05-19T00:08:59.145Z,12.29
2023-05-19T00:10:33.760Z,12.26
2023-05-19T00:12:06.611Z,12.24
2023-05-19T00:13:38.878Z,12.21
2023-05-19T00:15:11.630Z,12.19
2023-05-19T00:16:44.185Z,12.13
2023-05-19T00:18:17.215Z,12.11
2023-05-19T00:19:49.559Z,12.10
2023-05-19T00:21:21.809Z,12.10
2023-05-19T00:22:54.057Z,12.13
2023-05-19T00:24:28.612Z,12.16
2023-05-19T00:26:00.838Z,12.13
2023-05-19T00:27:32.883Z,12.15
2023-05-19T00:29:05.458Z,12.13
2023-05-19T00:30:37.643Z,12.13
2023-05-19T00:32:10.611Z,12.11
2023-05-19T00:33:42.831Z,12.09
2023-05-19T00:35:17.971Z,12.05
2023-05-19T00:36:50.146Z,12.04
2023-05-19T00:38:22.475Z,11.99
2023-05-19T00:39:54.643Z,11.96
2023-05-19T00:41:27.102Z,11.97
2023-05-19T00:42:59.215Z,11.92
2023-05-19T00:44:31.411Z,11.90
2023-05-19T00:46:04.018Z,11.86
2023-05-19T00:47:36.312Z,11.83
2023-05-19T00:49:08.446Z,11.82
2023-05-19T00:50:40.970Z,11.81
2023-05-19T00:52:13.068Z,11.77
2023-05-19T00:53:49.583Z,11.77
2023-05-19T00:55:28.651Z,11.77
2023-05-19T00:57:01.333Z,11.69
2023-05-19T00:58:33.862Z,11.66
2023-05-19T01:00:07.368Z,11.65
2023-05-19T01:01:39.807Z,11.70
2023-05-19T01:03:12.186Z,11.66
2023-05-19T01:04:45.592Z,11.64
2023-05-19T01:06:19.554Z,11.61
2023-05-19T01:07:53.928Z,11.56
2023-05-19T01:09:26.082Z,11.53
2023-05-19T01:10:58.226Z,11.48
2023-05-19T01:12:30.961Z,11.47
2023-05-19T01:14:03.235Z,11.39
2023-05-19T01:16:07.301Z,11.36
2023-05-19T01:17:50.035Z,11.30
2023-05-19T01:19:34.073Z,11.26
2023-05-19T01:21:31.834Z,11.20
2023-05-19T01:23:32.819Z,11.18
2023-05-19T01:25:18.490Z,11.15
2023-05-19T01:27:02.423Z,11.12
2023-05-19T01:28:43.033Z,11.14
2023-05-19T01:30:25.969Z,11.13
2023-05-19T01:32:00.804Z,11.09
2023-05-19T01:33:33.341Z,11.05
2023-05-19T01:35:06.401Z,11.05
2023-05-19T01:36:39.377Z,11.04
2023-05-19T01:38:12.872Z,11.05
2023-05-19T01:39:45.140Z,11.07
2023-05-19T01:41:19.872Z,11.04
2023-05-19T01:42:57.324Z,11.02
2023-05-19T01:44:30.012Z,10.96
2023-05-19T01:46:03.375Z,10.97
2023-05-19T01:47:39.868Z,10.98
2023-05-19T01:49:12.260Z,10.91
2023-05-19T01:50:44.943Z,10.89
2023-05-19T01:52:19.326Z,10.89
2023-05-19T01:53:51.779Z,10.85
2023-05-19T01:55:24.266Z,10.80
2023-05-19T01:57:25.555Z,10.80
2023-05-19T01:59:04.910Z,10.72
2023-05-19T02:00:39.728Z,10.68
2023-05-19T02:02:29.228Z,10.64
2023-05-19T02:04:16.214Z,10.64
2023-05-19T02:06:03.133Z,10.63
2023-05-19T02:07:44.105Z,10.60
2023-05-19T02:09:19.465Z,10.54
2023-05-19T02:10:58.133Z,10.50
2023-05-19T02:12:38.149Z,10.49
2023-05-19T02:14:40.023Z,10.47
2023-05-19T02:16:14.317Z,10.43
2023-05-19T02:17:48.772Z,10.40
2023-05-19T02:19:33.086Z,10.41
2023-05-19T02:21:05.309Z,10.32
2023-05-19T02:22:37.598Z,10.27
2023-05-19T02:24:09.741Z,10.27
2023-05-19T02:25:41.942Z,10.29
2023-05-19T02:27:14.166Z,10.28
2023-05-19T02:28:46.321Z,10.30
2023-05-19T02:30:18.478Z,10.27
2023-05-19T02:31:50.981Z,10.28
2023-05-19T02:33:26.491Z,10.25
2023-05-19T02:34:58.771Z,10.22
2023-05-19T02:36:35.286Z,10.23
2023-05-19T02:38:07.415Z,10.21
2023-05-19T02:39:39.725Z,10.21
2023-05-19T02:41:11.864Z,10.19
2023-05-19T02:42:44.104Z,10.21
2023-05-19T02:44:16.406Z,10.17
2023-05-19T02:45:48.588Z,10.16
2023-05-19T02:47:20.733Z,10.12
2023-05-19T02:48:53.468Z,10.07
2023-05-19T02:50:25.629Z,10.00
2023-05-19T02:51:57.926Z,9.99
2023-05-19T02:53:31.172Z,9.99
2023-05-19T02:55:03.516Z,9.93
2023-05-19T02:56:35.685Z,9.92
2023-05-19T02:58:07.945Z,9.91
2023-05-19T02:59:40.113Z,9.91
2023-05-19T03:01:12.544Z,9.87
2023-05-19T03:02:44.891Z,9.84
2023-05-19T03:04:20.488Z,9.84
2023-05-19T03:05:54.068Z,9.80
2023-05-19T03:07:27.234Z,9.76
2023-05-19T03:08:59.608Z,9.80
2023-05-19T03:10:31.982Z,9.82
2023-05-19T03:12:05.062Z,9.82
2023-05-19T03:13:37.210Z,9.76
2023-05-19T03:15:09.784Z,9.76
2023-05-19T03:16:42.742Z,9.76
2023-05-19T03:18:15.032Z,9.77
2023-05-19T03:19:47.359Z,9.73
2023-05-19T03:21:19.533Z,9.70
2023-05-19T03:22:51.877Z,9.71
2023-05-19T03:24:24.022Z,9.68
2023-05-19T03:25:56.744Z,9.62
2023-05-19T03:27:29.625Z,9.64
2023-05-19T03:29:01.922Z,9.62
2023-05-19T03:30:34.301Z,9.59
2023-05-19T03:32:07.002Z,9.61
2023-05-19T03:33:39.229Z,9.63
2023-05-19T03:35:11.486Z,9.66
2023-05-19T03:36:45.506Z,9.64
2023-05-19T03:38:17.851Z,9.65
2023-05-19T03:39:50.072Z,9.64
2023-05-19T03:41:22.757Z,9.65
2023-05-19T03:42:55.038Z,9.65
2023-05-19T03:44:27.198Z,9.66
2023-05-19T03:45:59.482Z,9.68
2023-05-19T03:47:32.348Z,9.70
2023-05-19T03:49:04.609Z,9.69
2023-05-19T03:50:38.547Z,9.69
2023-05-19T03:52:13.355Z,9.70
2023-05-19T03:53:46.198Z,9.67
2023-05-19T03:55:20.629Z,9.69
2023-05-19T03:56:52.951Z,9.72
2023-05-19T03:58:25.334Z,9.75
2023-05-19T03:59:57.572Z,9.76
2023-05-19T04:01:29.826Z,9.80
2023-05-19T04:03:02.461Z,9.81
2023-05-19T04:04:34.789Z,9.86
2023-05-19T04:06:07.276Z,9.89
2023-05-19T04:07:39.488Z,9.90
2023-05-19T04:09:13.994Z,9.96
2023-05-19T04:10:46.306Z,9.97
2023-05-19T04:12:18.695Z,9.97
2023-05-19T04:13:51.012Z,10.01
2023-05-19T04:15:23.288Z,10.06
2023-05-19T04:16:56.068Z,10.15
2023-05-19T04:18:29.255Z,10.21
2023-05-19T04:20:01.615Z,10.32
2023-05-19T04:21:34.213Z,10.31
2023-05-19T04:23:06.486Z,10.36
2023-05-19T04:24:38.662Z,10.41
2023-05-19T04:26:10.871Z,10.48
2023-05-19T04:27:43.102Z,10.53
2023-05-19T04:29:18.704Z,10.59
2023-05-19T04:30:53.526Z,10.70
2023-05-19T04:32:26.195Z,10.70
2023-05-19T04:33:58.435Z,10.79
2023-05-19T04:35:30.673Z,10.85
2023-05-19T04:37:03.348Z,10.93
2023-05-19T04:38:37.274Z,11.01
2023-05-19T04:40:11.507Z,11.09
2023-05-19T04:41:45.253Z,11.16
2023-05-19T04:43:18.539Z,11.23
2023-05-19T04:44:52.207Z,11.32
2023-05-19T04:46:24.989Z,11.38
2023-05-19T04:47:58.489Z,11.45
2023-05-19T04:49:30.542Z,11.59
2023-05-19T04:51:02.809Z,11.60
2023-05-19T04:52:35.010Z,11.66
2023-05-19T04:54:07.987Z,11.74
2023-05-19T04:55:40.244Z,11.79
2023-05-19T04:57:12.473Z,11.87
2023-05-19T04:58:45.064Z,11.91
2023-05-19T05:00:17.958Z,12.03
2023-05-19T05:01:50.128Z,12.12
2023-05-19T05:03:23.442Z,12.22
2023-05-19T05:04:57.013Z,12.30
2023-05-19T05:06:29.086Z,12.44
2023-05-19T05:08:01.610Z,12.48
2023-05-19T05:09:33.748Z,12.52
2023-05-19T05:11:06.274Z,12.60
2023-05-19T05:12:38.743Z,12.68
2023-05-19T05:14:11.420Z,12.78
2023-05-19T05:15:43.939Z,12.87
2023-05-19T05:17:16.627Z,12.95
2023-05-19T05:18:49.110Z,13.03
2023-05-19T05:20:22.061Z,13.10
2023-05-19T05:21:54.698Z,13.17
2023-05-19T05:23:27.334Z,13.25
2023-05-19T05:24:59.814Z,13.32
2023-05-19T05:26:34.115Z,13.44
2023-05-19T05:28:06.615Z,13.49
2023-05-19T05:29:38.735Z,13.55
2023-05-19T05:31:10.978Z,13.63
2023-05-19T05:32:43.210Z,13.69
2023-05-19T05:34:15.589Z,13.75
2023-05-19T05:35:47.734Z,13.81
2023-05-19T05:37:19.956Z,13.88
2023-05-19T05:38:52.192Z,13.98
2023-05-19T05:40:24.485Z,14.08
2023-05-19T05:41:56.767Z,14.20
2023-05-19T05:43:29.527Z,14.29
2023-05-19T05:45:01.688Z,14.41
2023-05-19T05:46:34.025Z,14.51
2023-05-19T05:48:06.852Z,14.61
2023-05-19T05:49:40.715Z,14.70
2023-05-19T05:51:13.357Z,14.72
2023-05-19T05:52:47.674Z,14.77
2023-05-19T05:54:22.659Z,14.87
2023-05-19T05:55:55.124Z,14.86
2023-05-19T05:57:27.426Z,14.94
2023-05-19T05:58:59.983Z,15.02
2023-05-19T06:00:32.592Z,15.07
2023-05-19T06:02:07.509Z,15.15
2023-05-19T06:03:41.699Z,15.18
2023-05-19T06:05:14.460Z,15.21
2023-05-19T06:06:49.449Z,15.27
2023-05-19T06:08:21.569Z,15.32
2023-05-19T06:09:53.752Z,15.38
2023-05-19T06:11:26.692Z,15.46
2023-05-19T06:12:58.860Z,15.49
2023-05-19T06:14:31.081Z,15.51
2023-05-19T06:16:03.380Z,15.57
2023-05-19T06:17:38.432Z,15.59
2023-05-19T06:19:10.692Z,15.68
2023-05-19T06:20:42.919Z,15.74
2023-05-19T06:22:15.151Z,15.82
2023-05-19T06:23:47.272Z,15.81
2023-05-19T06:25:21.449Z,15.89
2023-05-19T06:26:53.704Z,15.94
2023-05-19T06:28:25.944Z,15.97
2023-05-19T06:29:58.177Z,16.05
2023-05-19T06:31:30.396Z,16.09
2023-05-19T06:33:04.111Z,16.12
2023-05-19T06:34:36.348Z,16.17
2023-05-19T06:36:10.454Z,16.19
2023-05-19T06:37:42.654Z,16.27
2023-05-19T06:39:14.843Z,16.29
2023-05-19T06:40:47.030Z,16.31
2023-05-19T06:42:22.801Z,16.40
2023-05-19T06:43:54.990Z,16.45
2023-05-19T06:45:27.255Z,16.49
2023-05-19T06:46:59.440Z,16.53
2023-05-19T06:48:31.692Z,16.58
2023-05-19T06:50:03.931Z,16.56
2023-05-19T06:51:36.365Z,16.63
2023-05-19T06:53:08.546Z,16.60
2023-05-19T06:54:40.875Z,16.67
2023-05-19T06:56:12.997Z,16.70
2023-05-19T06:57:45.253Z,16.75
2023-05-19T06:59:17.508Z,16.79
2023-05-19T07:00:49.696Z,16.85
2023-05-19T07:02:21.973Z,16.88
2023-05-19T07:03:54.210Z,16.94
2023-05-19T07:05:26.488Z,16.97
2023-05-19T07:06:59.100Z,17.01
2023-05-19T07:08:31.374Z,17.05
2023-05-19T07:10:03.634Z,17.08
2023-05-19T07:11:35.878Z,17.15
2023-05-19T07:13:08.054Z,17.20
2023-05-19T07:14:40.177Z,17.26
2023-05-19T07:16:12.390Z,17.26
2023-05-19T07:17:44.534Z,17.30
2023-05-19T07:19:16.952Z,17.33
2023-05-19T07:20:49.273Z,17.35
2023-05-19T07:22:21.618Z,17.38
2023-05-19T07:23:53.834Z,17.40
2023-05-19T07:25:27.638Z,17.45
2023-05-19T07:26:59.844Z,17.51
2023-05-19T07:28:32.091Z,17.54
2023-05-19T07:30:04.759Z,17.59
2023-05-19T07:31:37.045Z,17.64
2023-05-19T07:33:09.214Z,17.64
2023-05-19T07:34:41.466Z,17.67
2023-05-19T07:36:13.738Z,17.70
2023-05-19T07:37:45.950Z,17.72
2023-05-19T07:39:18.433Z,17.75
2023-05-19T07:40:50.736Z,17.79
2023-05-19T07:42:22.899Z,17.82
2023-05-19T07:43:55.071Z,17.84
2023-05-19T07:45:27.270Z,17.86
2023-05-19T07:46:59.670Z,17.90
2023-05-19T07:48:31.992Z,17.95
2023-05-19T07:50:05.177Z,17.98
2023-05-19T07:51:37.396Z,17.99
2023-05-19T07:53:09.519Z,18.02
2023-05-19T07:54:41.786Z,18.08
2023-05-19T07:56:14.668Z,18.14
2023-05-19T07:57:46.799Z,18.19
2023-05-19T07:59:20.006Z,18.23
2023-05-19T08:00:52.247Z,18.26
2023-05-19T08:02:24.454Z,18.28
2023-05-19T08:03:57.157Z,18.32
2023-05-19T08:05:30.294Z,18.38
2023-05-19T08:07:02.553Z,18.40
2023-05-19T08:08:35.259Z,18.45
2023-05-19T08:10:08.040Z,18.49
2023-05-19T08:11:40.331Z,18.52
2023-05-19T08:13:12.521Z,18.60
2023-05-19T08:14:44.690Z,18.61
2023-05-19T08:16:17.187Z,18.63
2023-05-19T08:17:49.402Z,18.69
2023-05-19T08:19:21.868Z,18.69
2023-05-19T08:20:54.169Z,18.76
2023-05-19T08:22:26.501Z,18.82
2023-05-19T08:23:58.688Z,18.84
2023-05-19T08:25:30.892Z,18.88
2023-05-19T08:27:05.262Z,18.93
2023-05-19T08:28:37.717Z,18.96
2023-05-19T08:30:10.449Z,18.99
2023-05-19T08:31:42.689Z,19.01
2023-05-19T08:33:15.007Z,19.02
2023-05-19T08:34:47.324Z,19.02
2023-05-19T08:36:19.793Z,19.06
2023-05-19T08:37:51.979Z,19.09
2023-05-19T08:39:27.264Z,19.11
2023-05-19T08:40:59.501Z,19.16
2023-05-19T08:42:33.375Z,19.19
2023-05-19T08:44:05.809Z,19.24
2023-05-19T08:45:39.261Z,19.25
2023-05-19T08:47:14.744Z,19.29
2023-05-19T08:48:48.681Z,19.34
2023-05-19T08:50:25.320Z,19.39
2023-05-19T08:52:18.022Z,19.46
2023-05-19T08:53:52.241Z,19.53
2023-05-19T08:55:53.715Z,19.59
2023-05-19T08:57:26.285Z,19.59
2023-05-19T08:59:00.870Z,19.67
2023-05-19T09:00:33.664Z,19.70
2023-05-19T09:02:07.251Z,19.72
2023-05-19T09:03:39.748Z,19.83
2023-05-19T09:05:12.249Z,19.83
2023-05-19T09:06:45.593Z,19.85
2023-05-19T09:08:17.637Z,19.96
2023-05-19T09:09:49.876Z,19.91
2023-05-19T09:11:23.070Z,19.93
2023-05-19T09:12:55.213Z,19.87
2023-05-19T09:14:27.367Z,19.89
2023-05-19T09:16:00.440Z,19.96
2023-05-19T09:17:33.182Z,20.04
2023-05-19T09:19:05.499Z,20.08
2023-05-19T09:20:42.369Z,20.11
2023-05-19T09:22:16.259Z,20.06
2023-05-19T09:23:50.143Z,20.04
2023-05-19T09:25:25.933Z,20.08
2023-05-19T09:27:00.292Z,20.04
2023-05-19T09:28:33.709Z,20.06
2023-05-19T09:30:09.796Z,20.09
2023-05-19T09:31:52.696Z,20.12
2023-05-19T09:33:24.922Z,20.12
2023-05-19T09:34:57.516Z,20.16
2023-05-19T09:36:31.416Z,20.22
2023-05-19T09:38:06.007Z,20.25
2023-05-19T09:39:39.310Z,20.32
2023-05-19T09:41:13.971Z,20.45
2023-05-19T09:42:46.434Z,20.43
2023-05-19T09:44:21.607Z,20.49
2023-05-19T09:46:20.086Z,20.59
2023-05-19T09:47:52.324Z,20.63
2023-05-19T09:49:33.165Z,20.72
2023-05-19T09:51:08.277Z,20.72
2023-05-19T09:52:44.128Z,20.74
2023-05-19T09:54:16.870Z,20.72
2023-05-19T09:55:50.328Z,20.75
2023-05-19T09:57:28.719Z,20.77
2023-05-19T14:08:22.640Z,23.43
2023-05-19T14:09:55.758Z,23.18
2023-05-19T14:11:27.868Z,22.90
2023-05-19T14:14:35.526Z,22.71
2023-05-19T14:16:11.214Z,22.65
2023-05-19T14:17:43.433Z,22.40
2023-05-19T14:19:15.827Z,22.17
2023-05-19T14:20:48.077Z,21.99
2023-05-19T14:22:20.176Z,21.93
2023-05-19T14:23:52.323Z,21.82
2023-05-19T14:25:24.444Z,21.71
2023-05-19T14:26:56.750Z,21.57
2023-05-19T14:28:28.914Z,21.43
2023-05-19T14:30:01.140Z,21.28
2023-05-19T14:31:33.731Z,21.14
2023-05-19T14:33:06.177Z,21.00
2023-05-19T14:34:38.561Z,20.80
2023-05-19T14:36:11.070Z,20.68
2023-05-19T14:37:43.373Z,20.54
2023-05-19T14:39:15.760Z,20.47
2023-05-19T14:40:48.862Z,20.37
2023-05-19T14:42:20.953Z,20.27
2023-05-19T14:43:55.724Z,20.12
2023-05-19T14:45:27.965Z,19.98
2023-05-19T14:47:01.695Z,19.90
2023-05-19T14:48:33.788Z,19.84
2023-05-19T14:50:06.433Z,19.83
2023-05-19T14:51:38.618Z,19.78
2023-05-19T14:54:43.582Z,19.69
2023-05-19T14:56:15.847Z,19.67
2023-05-19T14:57:47.982Z,19.64
2023-05-19T14:59:20.210Z,19.64
2023-05-19T15:00:52.367Z,19.66
2023-05-19T15:02:24.522Z,19.66
2023-05-19T15:03:56.729Z,19.60
2023-05-19T15:05:28.929Z,19.55
2023-05-19T15:08:38.214Z,19.54
2023-05-19T15:10:10.765Z,19.55
2023-05-19T15:11:42.931Z,19.52
2023-05-19T15:13:15.071Z,19.52
2023-05-19T15:14:47.278Z,19.48
2023-05-19T15:16:19.402Z,19.41
2023-05-19T15:17:51.697Z,19.37
2023-05-19T15:19:23.910Z,19.36
2023-05-19T15:20:56.137Z,19.33
2023-05-19T15:22:28.412Z,19.28
2023-05-19T15:24:00.482Z,19.24
2023-05-19T15:25:32.594Z,19.23
2023-05-19T15:27:04.775Z,19.27
2023-05-19T15:28:36.962Z,19.28
2023-05-19T15:30:09.410Z,19.27
2023-05-19T15:31:41.752Z,19.30
2023-05-19T15:33:14.230Z,19.33
2023-05-19T15:34:46.428Z,19.35
2023-05-19T15:36:18.534Z,19.36
2023-05-19T15:37:50.693Z,19.38
2023-05-19T15:39:22.780Z,19.39
2023-05-19T15:40:54.922Z,19.39
2023-05-19T15:42:27.020Z,19.40
2023-05-19T15:44:02.918Z,19.39
2023-05-19T15:45:35.058Z,19.40
2023-05-19T15:47:07.378Z,19.41
2023-05-19T15:48:39.822Z,19.41
2023-05-19T15:50:12.073Z,19.41
2023-05-19T15:51:44.885Z,19.44
2023-05-19T15:53:17.208Z,19.44
2023-05-19T15:54:49.410Z,19.47
2023-05-19T15:56:22.051Z,19.49
2023-05-19T15:57:54.147Z,19.51
2023-05-19T15:59:26.330Z,19.55
2023-05-19T16:00:58.401Z,19.55
2023-05-19T16:02:30.586Z,19.58
2023-05-19T16:04:04.177Z,19.66
2023-05-19T16:05:36.352Z,19.70
2023-05-19T16:07:08.611Z,19.75
2023-05-19T16:08:40.879Z,19.74
2023-05-19T16:10:13.131Z,19.81
2023-05-19T16:11:45.233Z,19.90
2023-05-19T16:13:17.351Z,19.97
2023-05-19T16:14:49.444Z,20.05
2023-05-19T16:16:21.682Z,20.10
2023-05-19T16:17:55.424Z,20.15
2023-05-19T16:19:30.102Z,20.19
2023-05-19T16:21:02.249Z,20.22
2023-05-19T16:22:34.423Z,20.21
2023-05-19T16:24:06.685Z,20.25
2023-05-19T16:27:18.257Z,20.33
2023-05-19T16:28:50.359Z,20.46
2023-05-19T16:30:23.506Z,20.61
2023-05-19T16:31:55.696Z,20.78
2023-05-19T16:33:28.767Z,20.99
2023-05-19T16:35:01.056Z,21.14
2023-05-19T16:36:33.204Z,21.23
2023-05-19T16:38:05.275Z,21.27
2023-05-19T16:39:37.798Z,21.25
2023-05-19T16:41:12.888Z,21.16
2023-05-19T16:42:45.092Z,20.95
2023-05-19T16:44:18.720Z,20.70
2023-05-19T16:45:50.990Z,20.42
2023-05-19T16:47:23.106Z,20.28
2023-05-19T16:48:55.244Z,20.12
2023-05-19T16:50:27.386Z,19.92
2023-05-19T16:51:59.666Z,19.80
2023-05-19T16:53:32.249Z,19.76
2023-05-19T16:55:04.827Z,19.66
2023-05-19T16:56:37.163Z,19.54
2023-05-19T16:58:11.036Z,19.33
2023-05-19T16:59:43.392Z,19.32
2023-05-19T17:01:15.961Z,19.28
2023-05-19T17:02:48.223Z,19.05
2023-05-19T17:04:22.830Z,18.89
2023-05-19T17:05:55.051Z,18.78
2023-05-19T17:07:29.428Z,18.65
2023-05-19T17:09:02.346Z,18.59
2023-05-19T17:10:34.636Z,18.63
2023-05-19T17:12:07.432Z,18.60
2023-05-19T17:13:40.121Z,18.61
2023-05-19T17:15:12.435Z,18.55
2023-05-19T17:16:44.677Z,18.48
2023-05-19T17:18:16.870Z,18.36
2023-05-19T17:19:49.053Z,18.31
2023-05-19T17:21:21.898Z,18.28
2023-05-19T17:22:54.157Z,18.30
2023-05-19T17:24:26.545Z,18.33
2023-05-19T17:25:58.914Z,18.31
2023-05-19T17:27:31.064Z,18.32
2023-05-19T17:29:03.225Z,18.34
2023-05-19T17:30:35.611Z,18.33
2023-05-19T17:32:08.256Z,18.32
2023-05-19T17:33:40.826Z,18.33
2023-05-19T17:35:13.118Z,18.32
2023-05-19T17:36:45.206Z,18.34
2023-05-19T17:38:17.438Z,18.34
2023-05-19T17:39:50.157Z,18.34
2023-05-19T17:41:22.448Z,18.32
2023-05-19T17:42:54.615Z,18.31
2023-05-19T17:44:26.698Z,18.30
2023-05-19T17:46:00.292Z,18.26
2023-05-19T17:47:33.769Z,18.25
2023-05-19T17:49:06.729Z,18.27
2023-05-19T17:50:38.912Z,18.25
2023-05-19T17:52:11.413Z,18.24
2023-05-19T17:53:43.803Z,18.21
2023-05-19T17:55:16.731Z,18.20
2023-05-19T17:56:50.178Z,18.14
2023-05-19T17:58:22.533Z,18.03
2023-05-19T17:59:54.851Z,17.89
2023-05-19T18:01:27.315Z,17.78
2023-05-19T18:03:00.306Z,17.68
2023-05-19T18:04:32.848Z,17.53
2023-05-19T18:06:05.891Z,17.45
2023-05-19T18:07:39.933Z,17.42
2023-05-19T18:09:14.495Z,17.43
2023-05-19T18:10:48.911Z,17.38
2023-05-19T18:12:21.684Z,17.33
2023-05-19T18:13:53.889Z,17.35
2023-05-19T18:15:26.268Z,17.40
2023-05-19T18:16:58.386Z,17.43
2023-05-19T18:18:30.606Z,17.42
2023-05-19T18:20:03.021Z,17.44
2023-05-19T18:21:35.252Z,17.43
2023-05-19T18:23:07.622Z,17.37
2023-05-19T18:24:39.741Z,17.39
2023-05-19T18:26:15.506Z,17.39
2023-05-19T18:27:48.117Z,17.40
2023-05-19T18:29:20.302Z,17.37
2023-05-19T18:31:02.700Z,17.34
2023-05-19T18:32:34.924Z,17.23
2023-05-19T18:34:07.217Z,17.17
2023-05-19T18:35:39.333Z,17.14
2023-05-19T18:37:11.398Z,16.94
2023-05-19T18:38:43.558Z,16.82
2023-05-19T18:40:15.680Z,16.67
2023-05-19T18:41:47.896Z,16.56
2023-05-19T18:43:20.099Z,16.44
2023-05-19T18:44:52.316Z,16.19
2023-05-19T18:46:24.492Z,16.04
2023-05-19T18:47:56.740Z,15.95
2023-05-19T18:49:28.923Z,15.87
2023-05-19T18:51:01.658Z,15.74
2023-05-19T18:52:33.839Z,15.65
2023-05-19T18:54:06.078Z,15.65
2023-05-19T18:55:38.671Z,15.67
2023-05-19T18:57:11.022Z,15.63
2023-05-19T18:58:43.129Z,15.64
2023-05-19T19:00:15.757Z,15.69
2023-05-19T19:01:47.980Z,15.73
2023-05-19T19:03:20.372Z,15.78
2023-05-19T19:04:52.670Z,15.84
2023-05-19T19:06:24.952Z,15.86
2023-05-19T19:07:57.915Z,15.87
2023-05-19T19:09:30.273Z,15.85
2023-05-19T19:11:02.455Z,15.88
2023-05-19T19:12:35.170Z,15.88
2023-05-19T19:14:07.774Z,15.87
2023-05-19T19:15:40.283Z,15.85
2023-05-19T19:17:12.407Z,15.84
2023-05-19T19:18:44.881Z,15.80
2023-05-19T19:20:17.143Z,15.80
2023-05-19T19:21:49.380Z,15.80
2023-05-19T19:23:21.487Z,15.77
2023-05-19T19:24:53.591Z,15.77
2023-05-19T19:26:29.456Z,15.81
2023-05-19T19:28:02.078Z,15.76
2023-05-19T19:29:34.213Z,15.70
2023-05-19T19:31:06.348Z,15.68
2023-05-19T19:32:38.542Z,15.66
2023-05-19T19:34:11.715Z,15.65
2023-05-19T19:35:47.380Z,15.68
2023-05-19T19:37:19.752Z,15.64
2023-05-19T19:38:51.879Z,15.64
2023-05-19T19:40:25.298Z,15.62
2023-05-19T19:41:57.308Z,15.71
2023-05-19T19:43:29.507Z,15.68
2023-05-19T19:45:01.737Z,15.71
2023-05-19T19:46:33.953Z,15.72
2023-05-19T19:48:07.562Z,15.75
2023-05-19T19:49:39.762Z,15.73
2023-05-19T19:51:12.047Z,15.73
2023-05-19T19:52:44.182Z,15.71
2023-05-19T19:54:16.513Z,15.66
2023-05-19T19:56:01.473Z,15.68
2023-05-19T19:57:34.604Z,15.63
2023-05-19T19:59:06.703Z,15.62
2023-05-19T20:00:41.875Z,15.62
2023-05-19T20:02:14.472Z,15.63
2023-05-19T20:03:46.891Z,15.61
2023-05-19T20:05:19.439Z,15.61
2023-05-19T20:06:51.624Z,15.59
2023-05-19T20:08:24.915Z,15.62
2023-05-19T20:09:58.377Z,15.59
2023-05-19T20:11:30.605Z,15.62
2023-05-19T20:13:03.457Z,15.55
2023-05-19T20:14:35.558Z,15.53
2023-05-19T20:16:07.892Z,15.51
2023-05-19T20:17:40.066Z,15.48
2023-05-19T20:19:12.341Z,15.48
2023-05-19T20:20:44.641Z,15.47
2023-05-19T20:22:16.853Z,15.45
2023-05-19T20:23:50.884Z,15.47
2023-05-19T20:25:23.030Z,15.50
2023-05-19T20:26:55.187Z,15.49
2023-05-19T20:28:27.371Z,15.51
2023-05-19T20:29:59.646Z,15.51
2023-05-19T20:31:31.800Z,15.53
2023-05-19T20:33:04.570Z,15.51
2023-05-19T20:34:36.905Z,15.47
2023-05-19T20:36:09.168Z,15.41
2023-05-19T20:37:41.425Z,15.35
2023-05-19T20:39:13.597Z,15.28
2023-05-19T20:40:45.797Z,15.25
2023-05-19T20:42:17.998Z,15.23
2023-05-19T20:43:50.226Z,15.23
2023-05-19T20:45:22.512Z,15.22
2023-05-19T20:46:55.307Z,15.20
2023-05-19T20:48:27.856Z,15.17
2023-05-19T20:50:00.055Z,15.16
2023-05-19T20:51:33.190Z,15.16
2023-05-19T20:53:05.393Z,15.15
2023-05-19T20:54:37.534Z,15.14
2023-05-19T20:56:10.984Z,15.13
2023-05-19T20:57:44.977Z,15.11
2023-05-19T20:59:17.189Z,15.09
2023-05-19T21:00:53.906Z,15.09
2023-05-19T21:02:26.074Z,15.04
2023-05-19T21:03:58.578Z,15.02
2023-05-19T21:05:31.019Z,15.01
2023-05-19T21:07:03.378Z,15.05
2023-05-19T21:08:35.569Z,15.07
2023-05-19T21:10:08.648Z,15.09
2023-05-19T21:11:40.808Z,15.13
2023-05-19T21:13:12.925Z,15.17
2023-05-19T21:14:45.204Z,15.18
2023-05-19T21:16:17.484Z,15.13
2023-05-19T21:17:49.575Z,15.12
2023-05-19T21:19:22.330Z,15.09
2023-05-19T21:20:54.555Z,15.06
2023-05-19T21:22:27.545Z,15.06
2023-05-19T21:24:00.439Z,15.01
2023-05-19T21:25:32.518Z,14.99
2023-05-19T21:27:04.954Z,14.96
2023-05-19T21:28:37.207Z,14.92
2023-05-19T21:30:10.167Z,14.94
2023-05-19T21:31:42.356Z,14.90
2023-05-19T21:33:14.792Z,14.90
2023-05-19T21:34:47.042Z,14.88
2023-05-19T21:36:19.184Z,14.87
2023-05-19T21:37:51.335Z,14.86
2023-05-19T21:39:23.551Z,14.83
2023-05-19T21:40:55.701Z,14.86
2023-05-19T21:42:27.758Z,14.86
2023-05-19T21:44:00.091Z,14.87
2023-05-19T21:45:32.284Z,14.89
2023-05-19T21:47:04.471Z,14.89
2023-05-19T21:48:36.614Z,14.88
2023-05-19T21:50:09.280Z,14.87
2023-05-19T21:51:41.473Z,14.83
2023-05-19T21:53:13.622Z,14.80
2023-05-19T21:54:46.189Z,14.78
2023-05-19T21:56:18.293Z,14.73
2023-05-19T21:57:50.604Z,14.72
2023-05-19T21:59:25.192Z,14.66
2023-05-19T22:00:57.322Z,14.63
2023-05-19T22:02:32.683Z,14.59
2023-05-19T22:04:05.708Z,14.60
2023-05-19T22:05:38.650Z,14.56
2023-05-19T22:07:10.905Z,14.56
2023-05-19T22:08:43.097Z,14.54
2023-05-19T22:10:15.316Z,14.49
2023-05-19T22:11:47.539Z,14.46
2023-05-19T22:14:56.511Z,14.36
2023-05-19T22:16:28.843Z,14.29
2023-05-19T22:18:01.611Z,14.26
2023-05-19T22:19:33.964Z,14.22
2023-05-19T22:21:06.234Z,14.19
2023-05-19T22:22:38.349Z,14.18
2023-05-19T22:24:10.523Z,14.17
2023-05-19T22:25:42.810Z,14.14
2023-05-19T22:27:15.082Z,14.17
2023-05-19T22:28:47.278Z,14.17
2023-05-19T22:30:19.410Z,14.16
2023-05-19T22:31:51.723Z,14.14
2023-05-19T22:33:23.927Z,14.10
2023-05-19T22:34:56.438Z,14.03
2023-05-19T22:36:28.842Z,13.98
2023-05-19T22:38:03.966Z,13.92
2023-05-19T22:39:36.120Z,13.88
2023-05-19T22:41:08.261Z,13.85
2023-05-19T22:44:24.685Z,13.68
2023-05-19T22:45:56.891Z,13.72
2023-05-19T22:47:30.117Z,13.69
2023-05-19T22:49:02.291Z,13.69
2023-05-19T22:50:34.544Z,13.65
2023-05-19T22:52:07.094Z,13.62
2023-05-19T22:53:39.350Z,13.60
2023-05-19T22:55:11.431Z,13.56
2023-05-19T22:56:48.965Z,13.53
2023-05-19T22:58:21.293Z,13.50
2023-05-19T22:59:53.502Z,13.46
2023-05-19T23:01:25.631Z,13.43
2023-05-19T23:02:58.726Z,13.39
2023-05-19T23:04:31.132Z,13.35
2023-05-19T23:06:03.225Z,13.32
2023-05-19T23:07:35.541Z,13.28
2023-05-19T23:09:07.655Z,13.26
2023-05-19T23:10:39.792Z,13.21
2023-05-19T23:12:11.969Z,13.23
2023-05-19T23:13:44.028Z,13.22
2023-05-19T23:15:16.161Z,13.23
2023-05-19T23:16:50.699Z,13.21
2023-05-19T23:18:23.001Z,13.15
2023-05-19T23:19:55.168Z,13.13
2023-05-19T23:21:27.253Z,13.07
2023-05-19T23:23:02.363Z,13.02
2023-05-19T23:24:34.567Z,13.00
2023-05-19T23:26:07.025Z,12.97
2023-05-19T23:27:39.171Z,12.93
2023-05-19T23:29:13.385Z,12.90
2023-05-19T23:30:45.788Z,12.84
2023-05-19T23:32:17.948Z,12.80
2023-05-19T23:33:50.181Z,12.77
2023-05-19T23:35:22.691Z,12.75
2023-05-19T23:36:54.795Z,12.74
2023-05-19T23:38:28.146Z,12.70
2023-05-19T23:40:00.118Z,12.75
2023-05-19T23:41:32.339Z,12.64
2023-05-19T23:43:04.608Z,12.59
2023-05-19T23:44:36.853Z,12.54
2023-05-19T23:46:09.165Z,12.53
2023-05-19T23:49:15.075Z,12.50
2023-05-19T23:50:47.289Z,12.50
2023-05-19T23:52:19.474Z,12.47
2023-05-19T23:53:51.676Z,12.43
2023-05-19T23:55:23.899Z,12.35
2023-05-19T23:56:56.172Z,12.32
2023-05-19T23:58:28.315Z,12.30
